Time;durP1;ratioP1;P1;durP2;ratioP2;P2;SDS_P1;SDS_P2;PMS_P1;PMS_P2;Temp;Humidity;BMP_temperature;BMP_pressure;BME280_temperature;BME280_humidity;BME280_pressure;Samples;Min_cycle;Max_cycle;Signal;HPM_P1;HPM_P2
2021/12/03 00:01:15;;;;;;;20.10;10.90;;;;;;;1.87;77.03;98021.00;4807932;29;20055;-87
2021/12/03 00:03:44;;;;;;;20.90;10.82;;;;;;;1.88;77.15;98023.63;4777508;29;20555;-89
2021/12/03 00:06:13;;;;;;;19.15;10.98;;;;;;;1.86;77.08;98025.31;4777227;29;20062;-89
2021/12/03 00:08:41;;;;;;;19.08;10.15;;;;;;;1.82;77.38;98024.41;4802502;29;20058;-88
2021/12/03 00:11:11;;;;;;;21.02;11.60;;;;;;;1.72;77.63;98019.16;4786831;29;20077;-88
2021/12/03 00:17:56;;;;;;;20.15;10.52;;;;;;;1.62;77.56;98011.38;4835859;29;20059;-88
2021/12/03 00:20:24;;;;;;;18.58;10.70;;;;;;;1.67;77.99;98028.56;4833151;29;20062;-89
2021/12/03 00:22:58;;;;;;;18.77;10.85;;;;;;;1.56;78.13;98011.31;4832934;29;20058;-88
2021/12/03 00:25:25;;;;;;;21.45;11.15;;;;;;;1.59;78.23;98024.22;4848011;29;20046;-88
2021/12/03 00:27:58;;;;;;;22.67;11.25;;;;;;;1.49;78.03;98018.97;4831163;29;20042;-89
2021/12/03 00:30:37;;;;;;;21.13;11.45;;;;;;;1.46;78.61;98032.63;4812430;29;20062;-91
2021/12/03 00:33:07;;;;;;;21.42;10.80;;;;;;;1.52;78.42;98037.84;4811190;29;20039;-87
2021/12/03 00:35:35;;;;;;;22.55;11.48;;;;;;;1.35;78.58;97999.06;4787587;29;20063;-89
2021/12/03 00:38:30;;;;;;;22.17;12.05;;;;;;;1.10;78.27;97979.09;4794168;30;20116;-89
2021/12/03 00:41:23;;;;;;;21.77;11.57;;;;;;;1.21;78.77;97998.09;4791495;29;20536;-90
2021/12/03 00:43:54;;;;;;;23.75;11.07;;;;;;;1.51;78.90;98033.56;4790552;30;20449;-90
2021/12/03 00:46:22;;;;;;;22.02;11.85;;;;;;;1.53;79.04;98021.56;4791358;30;20154;-89
2021/12/03 00:49:16;;;;;;;22.52;11.90;;;;;;;1.57;78.71;98033.63;4791067;29;20519;-88
2021/12/03 00:51:59;;;;;;;20.17;10.87;;;;;;;1.53;78.88;98024.16;4788176;29;20067;-87
2021/12/03 00:54:50;;;;;;;21.40;11.38;;;;;;;1.55;78.59;98012.16;4788217;29;20413;-89
2021/12/03 00:57:17;;;;;;;19.35;10.73;;;;;;;1.60;78.74;98022.50;4787327;30;20482;-88
2021/12/03 00:59:50;;;;;;;19.58;10.68;;;;;;;1.61;79.05;98026.78;4788284;29;20074;-87
2021/12/03 01:02:18;;;;;;;20.70;11.00;;;;;;;1.29;78.79;97985.28;4788315;29;20055;-87
2021/12/03 01:04:46;;;;;;;19.33;10.50;;;;;;;1.65;78.93;98033.69;4788030;29;20059;-87
2021/12/03 01:07:16;;;;;;;19.75;10.85;;;;;;;1.53;78.94;98008.72;4802084;29;20073;-88
2021/12/03 01:09:44;;;;;;;19.87;10.67;;;;;;;1.65;78.75;98018.25;4800258;29;20058;-87
2021/12/03 01:12:14;;;;;;;20.50;10.77;;;;;;;1.66;78.90;98022.56;4823472;29;20440;-86
2021/12/03 01:15:02;;;;;;;17.92;9.98;;;;;;;1.72;78.73;98032.03;4825386;29;20451;-87
2021/12/03 01:17:29;;;;;;;19.70;11.00;;;;;;;1.75;78.80;98022.63;4808461;29;20130;-87
2021/12/03 01:28:43;;;;;;;20.42;10.35;;;;;;;1.76;78.74;98044.94;4772352;30;20098;-87
2021/12/03 01:31:10;;;;;;;19.00;9.48;;;;;;;1.76;78.72;98005.47;4761994;30;20525;-87
2021/12/03 01:33:38;;;;;;;17.60;9.75;;;;;;;1.97;78.25;98033.97;4757503;30;20051;-87
2021/12/03 01:36:06;;;;;;;18.13;10.27;;;;;;;2.00;78.66;98036.59;4765093;30;20046;-87
2021/12/03 01:38:33;;;;;;;19.20;9.65;;;;;;;1.95;78.46;98024.53;4755492;29;20087;-86
2021/12/03 01:41:01;;;;;;;20.77;10.63;;;;;;;2.07;78.66;98047.81;4739105;30;20556;-85
2021/12/03 01:43:28;;;;;;;19.92;10.57;;;;;;;2.10;78.21;98042.66;4738630;30;20114;-86
2021/12/03 01:45:59;;;;;;;18.85;9.90;;;;;;;2.18;78.28;98053.91;4739085;30;20091;-85
2021/12/03 01:48:27;;;;;;;15.80;9.00;;;;;;;2.15;78.14;98037.56;4753867;30;20502;-86
2021/12/03 01:50:55;;;;;;;16.90;9.77;;;;;;;2.29;77.84;98048.84;4753240;30;20488;-86
2021/12/03 01:53:26;;;;;;;17.92;9.13;;;;;;;2.30;77.73;98052.25;4753790;30;20066;-86
2021/12/03 01:55:56;;;;;;;18.10;9.10;;;;;;;2.17;77.88;98035.84;4739092;30;20143;-87
2021/12/03 01:58:24;;;;;;;16.30;8.98;;;;;;;2.33;77.46;98058.31;4753176;30;20121;-87
2021/12/03 02:00:58;;;;;;;15.18;8.48;;;;;;;2.36;77.71;98049.75;4771915;30;20444;-87
2021/12/03 02:03:30;;;;;;;13.15;8.02;;;;;;;2.23;77.61;98046.22;4790898;30;20059;-87
2021/12/03 02:05:58;;;;;;;17.10;8.65;;;;;;;2.39;77.79;98058.38;4791340;29;20063;-86
2021/12/03 02:08:26;;;;;;;15.60;8.50;;;;;;;2.44;77.39;98063.53;4790769;30;20074;-86
2021/12/03 02:10:55;;;;;;;16.08;8.80;;;;;;;2.50;77.16;98080.78;4790106;30;20055;-87
2021/12/03 02:13:22;;;;;;;15.57;8.77;;;;;;;2.52;77.08;98077.34;4804853;29;20063;-85
2021/12/03 02:15:54;;;;;;;15.52;8.43;;;;;;;2.51;77.03;98080.78;4785081;30;20437;-86
2021/12/03 02:18:40;;;;;;;15.27;8.35;;;;;;;2.50;77.25;98084.22;4790283;30;20051;-86
2021/12/03 02:21:09;;;;;;;16.40;8.82;;;;;;;2.53;76.88;98067.91;4791589;29;20077;-85
2021/12/03 02:23:41;;;;;;;18.30;8.80;;;;;;;2.53;76.56;98084.22;4791561;29;20059;-86
2021/12/03 02:26:08;;;;;;;16.95;9.05;;;;;;;2.55;77.35;98102.28;4791620;29;20072;-86
2021/12/03 02:28:42;;;;;;;14.43;8.55;;;;;;;2.60;77.16;98091.16;4790756;29;20095;-86
2021/12/03 02:31:11;;;;;;;16.50;8.85;;;;;;;2.54;76.69;98085.06;4790528;29;20055;-86
2021/12/03 02:33:39;;;;;;;15.07;8.73;;;;;;;2.51;76.75;98074.75;4790972;29;20059;-86
2021/12/03 02:36:07;;;;;;;17.13;9.20;;;;;;;2.61;77.06;98100.59;4790850;29;20059;-86
2021/12/03 02:38:34;;;;;;;16.50;9.00;;;;;;;2.59;76.39;98102.31;4789710;29;20059;-86
2021/12/03 02:41:02;;;;;;;16.48;9.00;;;;;;;2.66;76.43;98103.22;4790618;29;20079;-86
2021/12/03 02:43:29;;;;;;;15.82;8.75;;;;;;;2.60;76.56;98109.22;4790154;29;20071;-85
2021/12/03 02:45:57;;;;;;;18.48;9.55;;;;;;;2.55;77.03;98094.56;4790641;29;20166;-85
2021/12/03 02:48:26;;;;;;;17.65;9.43;;;;;;;2.49;77.08;98095.34;4792474;29;20063;-86
2021/12/03 02:50:55;;;;;;;16.92;8.82;;;;;;;2.41;76.77;98086.69;4808513;29;20546;-86
2021/12/03 02:53:22;;;;;;;16.20;8.90;;;;;;;2.43;76.88;98093.63;4810205;29;20064;-86
2021/12/03 02:55:51;;;;;;;15.93;9.07;;;;;;;2.38;77.27;98097.84;4810686;29;20066;-86
2021/12/03 02:58:19;;;;;;;15.98;9.20;;;;;;;2.34;77.36;98090.09;4793558;29;20428;-87
2021/12/03 03:00:51;;;;;;;15.30;8.90;;;;;;;2.24;77.38;98095.19;4811765;29;20058;-87
2021/12/03 03:03:18;;;;;;;16.25;8.98;;;;;;;2.12;77.96;98105.38;4810843;29;20065;-87
2021/12/03 03:05:54;;;;;;;17.00;8.95;;;;;;;2.01;77.94;98104.41;4808876;29;20119;-87
2021/12/03 03:08:22;;;;;;;19.25;9.40;;;;;;;1.93;78.40;98098.31;4809202;29;20260;-87
2021/12/03 03:10:51;;;;;;;15.95;9.07;;;;;;;1.85;78.73;98095.69;4808375;29;20063;-86
2021/12/03 03:13:18;;;;;;;16.10;9.32;;;;;;;1.79;78.90;98109.34;4808861;29;20084;-86
2021/12/03 03:15:46;;;;;;;17.30;9.80;;;;;;;1.76;78.95;98091.28;4808531;29;20043;-87
2021/12/03 03:18:19;;;;;;;17.33;9.20;;;;;;;1.65;78.85;98069.72;4808676;29;20103;-86
2021/12/03 03:20:47;;;;;;;16.83;9.45;;;;;;;1.77;78.44;98089.59;4809682;29;20130;-87
2021/12/03 03:23:16;;;;;;;17.83;9.93;;;;;;;1.69;79.11;98092.09;4808112;29;20082;-88
2021/12/03 03:25:46;;;;;;;18.80;9.77;;;;;;;1.65;79.23;98110.91;4809160;29;20063;-86
2021/12/03 03:28:14;;;;;;;18.30;10.00;;;;;;;1.63;78.99;98118.63;4809424;29;20066;-86
2021/12/03 03:30:43;;;;;;;18.67;10.10;;;;;;;1.56;79.54;98118.53;4809217;29;20066;-88
2021/12/03 03:33:11;;;;;;;19.00;9.97;;;;;;;1.53;79.67;98123.66;4809543;29;20051;-86
2021/12/03 03:35:39;;;;;;;18.55;10.48;;;;;;;1.51;79.53;98110.78;4811249;29;20317;-86
2021/12/03 03:38:06;;;;;;;18.20;10.27;;;;;;;1.55;79.57;98127.09;4823767;29;20122;-88
2021/12/03 03:40:34;;;;;;;18.67;10.63;;;;;;;1.52;79.94;98120.19;4839384;29;20042;-87
2021/12/03 03:43:02;;;;;;;20.85;10.70;;;;;;;1.58;79.68;98116.84;4845708;29;20087;-88
2021/12/03 03:45:31;;;;;;;19.10;10.82;;;;;;;1.72;79.47;98133.31;4847842;29;20053;-87
2021/12/03 03:47:58;;;;;;;21.83;11.23;;;;;;;1.83;78.93;98124.00;4844350;29;20062;-86
2021/12/03 03:50:26;;;;;;;20.23;10.70;;;;;;;1.90;78.68;98113.75;4839327;29;20054;-86
2021/12/03 03:52:55;;;;;;;21.90;12.07;;;;;;;2.06;78.27;98120.75;4824131;29;20089;-86
2021/12/03 03:55:23;;;;;;;19.10;11.30;;;;;;;2.08;78.08;98134.53;4840557;29;20058;-85
2021/12/03 03:57:53;;;;;;;19.70;11.52;;;;;;;2.18;77.94;98133.78;4830507;29;20066;-86
2021/12/03 04:00:49;;;;;;;20.65;11.15;;;;;;;2.14;77.77;98121.72;4824770;29;20500;-86
2021/12/03 04:03:17;;;;;;;20.73;11.65;;;;;;;2.35;77.58;98148.53;4825238;29;20538;-89
2021/12/03 04:05:44;;;;;;;22.58;12.38;;;;;;;2.36;77.33;98137.34;4810862;29;20054;-87
2021/12/03 04:08:12;;;;;;;21.85;11.95;;;;;;;2.46;77.27;98141.75;4844593;29;20036;-90
2021/12/03 04:10:39;;;;;;;24.95;13.00;;;;;;;2.51;77.35;98145.22;4848093;29;20102;-90
2021/12/03 04:13:07;;;;;;;21.13;12.07;;;;;;;2.53;77.19;98140.94;4847138;29;20058;-88
2021/12/03 04:15:34;;;;;;;20.25;12.52;;;;;;;2.65;77.00;98160.81;4839951;29;20405;-91
2021/12/03 04:18:01;;;;;;;21.60;12.23;;;;;;;2.62;76.71;98156.50;4846854;29;20058;-88
2021/12/03 04:20:29;;;;;;;22.65;12.38;;;;;;;2.75;76.60;98162.56;4842106;29;20073;-88
2021/12/03 04:22:56;;;;;;;22.85;12.05;;;;;;;2.64;77.06;98152.19;4835460;29;20465;-87
2021/12/03 04:25:24;;;;;;;23.10;12.88;;;;;;;2.55;76.88;98146.09;4833652;29;20074;-87
2021/12/03 04:27:52;;;;;;;24.30;12.38;;;;;;;2.63;77.00;98175.41;4833552;29;20054;-87
2021/12/03 04:30:26;;;;;;;23.80;14.43;;;;;;;2.46;77.04;98167.50;4828728;29;20101;-86
2021/12/03 04:32:54;;;;;;;25.02;13.77;;;;;;;2.36;77.09;98158.81;4801227;29;20123;-86
2021/12/03 04:35:24;;;;;;;23.50;12.75;;;;;;;2.17;77.61;98144.03;4791265;29;20059;-87
2021/12/03 04:37:52;;;;;;;24.33;12.57;;;;;;;2.13;78.00;98176.66;4808115;29;20115;-87
2021/12/03 04:40:20;;;;;;;23.58;12.57;;;;;;;2.13;78.18;98194.69;4794744;29;20301;-88
2021/12/03 04:42:48;;;;;;;25.05;13.10;;;;;;;1.99;78.20;98168.78;4790073;29;20523;-86
2021/12/03 04:45:19;;;;;;;25.27;13.30;;;;;;;1.92;78.24;98161.84;4788294;30;20055;-89
2021/12/03 04:47:48;;;;;;;25.23;13.02;;;;;;;2.09;78.02;98195.50;4789856;29;20147;-86
2021/12/03 04:50:18;;;;;;;24.73;12.98;;;;;;;2.10;78.07;98191.22;4789959;30;20062;-87
2021/12/03 04:52:46;;;;;;;25.38;13.00;;;;;;;2.08;77.75;98191.19;4789186;29;20059;-87
2021/12/03 04:55:14;;;;;;;21.15;12.55;;;;;;;2.01;77.80;98184.25;4796087;29;20059;-87
2021/12/03 04:57:42;;;;;;;25.33;12.73;;;;;;;1.99;77.98;98188.53;4816223;29;20212;-86
2021/12/03 05:00:13;;;;;;;27.88;13.02;;;;;;;2.05;78.09;98193.75;4829161;29;20054;-87
2021/12/03 05:02:41;;;;;;;23.75;12.50;;;;;;;2.18;77.44;98200.75;4820809;29;20051;-87
2021/12/03 05:05:08;;;;;;;23.10;12.60;;;;;;;2.23;77.21;98193.91;4816018;29;20094;-87
2021/12/03 05:07:57;;;;;;;22.48;12.32;;;;;;;2.32;76.54;98210.31;4813310;29;20086;-88
2021/12/03 05:10:28;;;;;;;21.92;12.40;;;;;;;2.39;76.60;98223.28;4798324;29;20051;-88
2021/12/03 05:13:03;;;;;;;24.35;11.63;;;;;;;2.40;76.44;98216.41;4811094;29;20055;-87
2021/12/03 05:15:32;;;;;;;21.00;11.98;;;;;;;2.38;76.87;98228.44;4811574;29;20055;-87
2021/12/03 05:18:00;;;;;;;22.35;12.23;;;;;;;2.36;76.75;98218.09;4793255;29;20539;-86
2021/12/03 05:20:27;;;;;;;21.40;12.57;;;;;;;2.41;76.83;98212.97;4792563;29;20055;-87
2021/12/03 05:22:56;;;;;;;22.45;11.45;;;;;;;2.59;76.32;98220.03;4793540;29;20066;-87
2021/12/03 05:25:23;;;;;;;25.60;12.32;;;;;;;2.53;76.08;98225.13;4791565;30;20079;-85
2021/12/03 05:27:52;;;;;;;20.75;11.15;;;;;;;2.51;75.68;98213.94;4792952;29;20081;-88
2021/12/03 05:30:20;;;;;;;22.23;11.40;;;;;;;2.60;75.77;98224.31;4792230;30;20531;-90
2021/12/03 05:32:47;;;;;;;21.35;11.20;;;;;;;2.38;75.65;98180.31;4793946;29;20101;-88
2021/12/03 05:35:15;;;;;;;19.88;11.23;;;;;;;2.79;75.39;98227.94;4793034;29;20062;-90
2021/12/03 05:37:43;;;;;;;18.20;11.30;;;;;;;2.74;74.97;98217.59;4793915;29;20067;-87
2021/12/03 05:40:12;;;;;;;20.88;10.77;;;;;;;2.84;75.19;98247.78;4814713;29;20043;-88
2021/12/03 05:42:40;;;;;;;20.17;11.13;;;;;;;2.90;75.05;98252.09;4814361;29;20059;-89
2021/12/03 05:45:11;;;;;;;20.40;11.40;;;;;;;2.95;74.74;98257.31;4806240;29;20055;-89
2021/12/03 05:47:38;;;;;;;21.52;11.38;;;;;;;2.80;74.87;98227.97;4796471;30;20449;-88
2021/12/03 05:50:08;;;;;;;19.77;11.88;;;;;;;2.66;75.07;98208.91;4827409;29;20084;-87
2021/12/03 05:52:36;;;;;;;22.95;12.75;;;;;;;2.93;74.56;98256.44;4793811;29;20493;-88
2021/12/03 05:55:05;;;;;;;21.67;11.85;;;;;;;3.04;74.46;98278.88;4793325;30;20051;-88
2021/12/03 05:57:32;;;;;;;22.38;11.75;;;;;;;2.87;74.87;98249.50;4793186;29;20070;-88
2021/12/03 06:00:01;;;;;;;22.42;12.27;;;;;;;3.06;74.32;98277.19;4792695;29;20513;-88
2021/12/03 06:02:30;;;;;;;23.40;12.80;;;;;;;3.01;74.48;98278.88;4794236;29;20402;-91
2021/12/03 06:04:58;;;;;;;20.33;12.10;;;;;;;2.97;74.64;98279.69;4805642;29;20066;-83
2021/12/03 06:07:26;;;;;;;21.50;12.13;;;;;;;3.04;74.57;98288.34;4804606;29;20479;-84
2021/12/03 06:09:53;;;;;;;22.77;12.98;;;;;;;3.05;74.84;98282.31;4790826;29;20063;-84
2021/12/03 06:12:20;;;;;;;22.48;12.60;;;;;;;3.00;74.62;98268.53;4790754;29;20089;-84
2021/12/03 06:14:48;;;;;;;22.33;12.77;;;;;;;2.96;74.74;98277.94;4794357;29;20246;-82
2021/12/03 06:17:15;;;;;;;22.23;11.85;;;;;;;2.88;75.28;98295.06;4793395;29;20065;-83
2021/12/03 06:19:43;;;;;;;20.55;11.73;;;;;;;2.73;75.48;98300.97;4790668;29;20059;-83
2021/12/03 06:22:11;;;;;;;21.88;11.35;;;;;;;2.67;75.34;98306.91;4792799;29;20059;-82
2021/12/03 06:24:40;;;;;;;21.58;12.30;;;;;;;2.66;75.51;98301.75;4791851;29;20055;-84
2021/12/03 06:27:08;;;;;;;23.05;11.95;;;;;;;2.64;75.49;98308.59;4797452;29;20063;-83
2021/12/03 06:29:43;;;;;;;21.95;12.45;;;;;;;2.62;75.70;98299.97;4790886;29;20055;-86
2021/12/03 06:32:10;;;;;;;25.40;12.18;;;;;;;2.63;75.41;98294.84;4804067;29;20089;-84
2021/12/03 06:34:38;;;;;;;22.58;12.63;;;;;;;2.73;75.57;98315.56;4793680;29;20083;-81
2021/12/03 06:37:07;;;;;;;21.10;11.75;;;;;;;2.64;75.68;98314.59;4796340;29;20055;-83
2021/12/03 06:39:34;;;;;;;23.55;13.00;;;;;;;2.65;75.71;98318.94;4791781;29;20063;-83
2021/12/03 06:42:02;;;;;;;22.05;12.43;;;;;;;2.66;75.79;98314.63;4791272;29;20055;-84
2021/12/03 06:44:31;;;;;;;23.35;12.77;;;;;;;2.60;75.67;98309.41;4790213;29;20075;-83
2021/12/03 06:47:00;;;;;;;21.33;11.75;;;;;;;2.62;75.57;98312.88;4791079;29;20055;-83
2021/12/03 06:49:29;;;;;;;23.27;13.60;;;;;;;2.58;75.68;98317.16;4791916;29;20077;-84
2021/12/03 06:52:07;;;;;;;23.77;12.95;;;;;;;2.58;75.89;98327.47;4798969;29;20093;-84
2021/12/03 06:54:36;;;;;;;22.48;12.52;;;;;;;2.48;75.35;98312.72;4820018;29;20050;-82
2021/12/03 06:57:06;;;;;;;25.33;14.30;;;;;;;2.44;75.84;98322.13;4827773;29;20062;-85
2021/12/03 06:59:33;;;;;;;29.08;14.65;;;;;;;2.39;75.94;98330.69;4818303;29;20498;-85
2021/12/03 07:02:00;;;;;;;26.58;13.70;;;;;;;2.38;76.07;98334.09;4804246;29;20496;-84
2021/12/03 07:04:28;;;;;;;27.77;14.43;;;;;;;2.38;75.73;98340.09;4826066;29;20038;-84
2021/12/03 07:06:55;;;;;;;23.75;13.45;;;;;;;2.51;75.32;98350.56;4826077;29;20138;-86
2021/12/03 07:09:23;;;;;;;24.38;13.23;;;;;;;2.60;75.23;98354.13;4815568;29;20064;-85
2021/12/03 07:11:50;;;;;;;26.85;13.73;;;;;;;2.70;75.07;98355.06;4814913;29;20451;-82
2021/12/03 07:14:17;;;;;;;23.35;13.00;;;;;;;2.74;74.50;98343.94;4825495;29;20107;-81
2021/12/03 07:16:45;;;;;;;21.73;12.88;;;;;;;2.82;74.62;98352.63;4824834;29;20145;-84
2021/12/03 07:19:13;;;;;;;24.77;12.35;;;;;;;2.91;74.57;98364.75;4823997;29;20435;-83
2021/12/03 07:21:40;;;;;;;25.05;13.65;;;;;;;2.91;74.40;98356.16;4826085;29;20074;-86
2021/12/03 07:24:07;;;;;;;22.55;12.52;;;;;;;3.06;74.07;98372.63;4824018;29;20539;-85
2021/12/03 07:26:35;;;;;;;24.00;13.50;;;;;;;3.18;73.82;98361.53;4825984;29;20080;-83
2021/12/03 07:29:02;;;;;;;22.40;13.07;;;;;;;3.16;73.84;98365.84;4825607;29;20054;-85
2021/12/03 07:31:30;;;;;;;21.73;12.02;;;;;;;3.39;72.97;98371.19;4826050;29;20062;-86
2021/12/03 07:33:57;;;;;;;22.73;11.82;;;;;;;3.36;73.07;98358.28;4825639;29;20065;-85
2021/12/03 07:36:24;;;;;;;18.58;11.25;;;;;;;3.43;72.79;98341.13;4825560;29;20108;-86
2021/12/03 07:38:52;;;;;;;19.45;10.20;;;;;;;3.41;72.89;98327.34;4824940;29;20057;-85
2021/12/03 07:41:19;;;;;;;18.88;10.32;;;;;;;3.35;72.29;98320.41;4826282;29;20068;-84
2021/12/03 07:43:47;;;;;;;21.17;11.45;;;;;;;3.43;72.38;98347.13;4826000;29;20054;-86
2021/12/03 07:46:15;;;;;;;15.85;9.85;;;;;;;3.57;72.26;98343.78;4825225;29;20107;-85
2021/12/03 07:48:47;;;;;;;19.40;11.02;;;;;;;3.71;71.47;98360.25;4824730;29;20537;-85
2021/12/03 07:51:18;;;;;;;17.52;10.50;;;;;;;3.81;71.56;98358.59;4826671;29;20081;-86
2021/12/03 07:53:46;;;;;;;20.90;9.93;;;;;;;3.95;71.03;98369.88;4823461;29;20051;-86
2021/12/03 07:56:13;;;;;;;17.33;10.45;;;;;;;4.01;71.11;98376.81;4807488;29;20119;-88
2021/12/03 07:58:49;;;;;;;18.55;10.02;;;;;;;3.98;70.99;98369.00;4778283;29;20079;-85
2021/12/03 08:01:21;;;;;;;20.50;10.63;;;;;;;3.92;70.76;98375.03;4808214;29;20075;-86
2021/12/03 08:03:48;;;;;;;19.98;10.88;;;;;;;3.84;70.33;98350.88;4808511;29;20090;-84
2021/12/03 08:06:16;;;;;;;18.45;10.05;;;;;;;4.01;70.94;98376.81;4817144;29;20059;-85
2021/12/03 08:08:43;;;;;;;18.48;10.45;;;;;;;3.85;71.11;98356.06;4805896;29;20484;-85
2021/12/03 08:11:11;;;;;;;17.92;11.07;;;;;;;3.82;70.98;98389.59;4807165;29;20054;-85
2021/12/03 08:13:38;;;;;;;19.30;11.05;;;;;;;3.75;70.76;98361.16;4810814;29;20505;-83
2021/12/03 08:16:14;;;;;;;20.48;11.48;;;;;;;3.78;70.78;98354.25;4805616;29;20122;-83
2021/12/03 08:18:41;;;;;;;18.98;10.65;;;;;;;3.76;70.71;98381.78;4792501;29;20514;-85
2021/12/03 08:21:08;;;;;;;17.33;10.20;;;;;;;3.71;71.03;98361.97;4806697;29;20051;-83
2021/12/03 08:23:35;;;;;;;17.15;9.52;;;;;;;3.73;70.78;98379.22;4806812;29;20067;-84
2021/12/03 08:26:07;;;;;;;18.67;10.70;;;;;;;3.75;70.94;98371.47;4809123;29;20118;-84
2021/12/03 08:28:51;;;;;;;17.63;10.80;;;;;;;3.72;70.44;98369.72;4823091;29;20058;-85
2021/12/03 08:31:22;;;;;;;17.85;10.32;;;;;;;3.80;70.30;98372.38;4808439;29;20050;-82
2021/12/03 08:33:52;;;;;;;17.52;10.45;;;;;;;4.00;70.09;98390.56;4824185;29;20059;-82
2021/12/03 08:37:03;;;;;;;17.45;9.57;;;;;;;4.04;69.70;98384.56;4823352;29;20078;-82
2021/12/03 08:39:43;;;;;;;15.88;9.43;;;;;;;3.94;69.61;98363.00;4822071;29;20115;-82
2021/12/03 08:47:28;;;;;;;17.38;9.93;;;;;;;3.74;70.12;98349.94;4803166;29;20062;-83
2021/12/03 08:49:59;;;;;;;15.63;9.87;;;;;;;4.03;69.80;98381.13;4805193;29;20065;-85
2021/12/03 08:55:43;;;;;;;14.07;8.88;;;;;;;4.05;69.18;98396.66;4820535;29;20089;-83
2021/12/03 08:58:13;;;;;;;16.83;9.70;;;;;;;4.10;69.31;98405.28;4824905;29;20500;-85
2021/12/03 09:01:02;;;;;;;17.75;9.18;;;;;;;4.03;68.88;98394.03;4825247;29;20062;-87
2021/12/03 09:03:30;;;;;;;15.75;8.95;;;;;;;3.99;68.80;98370.75;4808923;29;20077;-85
2021/12/03 09:05:57;;;;;;;15.68;9.30;;;;;;;4.05;68.66;98379.41;4824810;29;20088;-85
2021/12/03 09:08:25;;;;;;;16.92;9.70;;;;;;;4.08;68.99;98388.91;4823640;29;20054;-86
2021/12/03 09:10:52;;;;;;;15.88;9.13;;;;;;;4.10;68.74;98393.22;4823345;29;20512;-87
2021/12/03 09:13:20;;;;;;;14.68;8.38;;;;;;;4.03;67.91;98367.34;4809082;29;20058;-86
2021/12/03 09:16:03;;;;;;;16.65;9.38;;;;;;;4.17;68.28;98399.28;4827714;29;20066;-89
2021/12/03 09:18:33;;;;;;;17.20;10.10;;;;;;;4.12;68.03;98389.78;4825918;29;20507;-89
2021/12/03 09:21:24;;;;;;;19.27;10.20;;;;;;;4.18;67.84;98403.59;4824553;29;20058;-88
2021/12/03 09:24:12;;;;;;;14.65;9.90;;;;;;;4.19;67.72;98389.81;4823922;29;20069;-86
2021/12/03 09:26:42;;;;;;;14.75;9.35;;;;;;;4.20;67.89;98382.94;4825832;29;20050;-89
2021/12/03 09:29:13;;;;;;;17.67;9.98;;;;;;;4.23;67.50;98393.28;4826062;29;20149;-88
2021/12/03 09:31:43;;;;;;;16.00;9.15;;;;;;;4.15;67.48;98384.63;4811930;29;20058;-90
2021/12/03 09:34:14;;;;;;;17.58;9.27;;;;;;;4.12;67.91;98410.47;4809946;29;20086;-89
2021/12/03 09:36:41;;;;;;;;;;;;;;;3.83;68.69;98403.38;4809639;29;20186;-89
2021/12/03 09:39:15;;;;;;;17.38;9.45;;;;;;;3.82;68.42;98407.69;4825167;29;19985;-87
2021/12/03 09:41:43;;;;;;;16.80;10.45;;;;;;;3.75;68.33;98403.31;4827721;29;20066;-87
2021/12/03 09:44:11;;;;;;;17.45;9.73;;;;;;;3.73;68.38;98392.13;4824425;29;20515;-89
2021/12/03 09:46:39;;;;;;;19.25;10.50;;;;;;;3.87;68.88;98410.28;4829173;29;20046;-88
2021/12/03 09:51:49;;;;;;;18.50;10.32;;;;;;;3.76;68.52;98366.31;4827562;29;20061;-83
2021/12/03 09:54:35;;;;;;;16.42;9.85;;;;;;;3.75;68.90;98384.41;4827130;29;20058;-84
2021/12/03 09:57:12;;;;;;;17.70;10.10;;;;;;;3.77;69.35;98398.19;4827009;29;20482;-87
2021/12/03 10:12:06;;;;;;;17.08;10.00;;;;;;;3.66;69.17;98414.47;4828712;29;20232;-86
2021/12/03 10:14:45;;;;;;;17.40;9.70;;;;;;;3.75;69.63;98411.06;4836296;29;20110;-85
2021/12/03 10:21:12;;;;;;;14.63;9.30;;;;;;;3.68;69.25;98401.56;4827727;29;20058;-89
2021/12/03 10:29:17;;;;;;;19.23;11.03;;;;;;;3.98;69.43;98405.19;4841689;29;20087;-86
2021/12/03 10:51:33;;;;;;;21.17;11.20;;;;;;;3.76;69.04;98401.59;4846373;29;20056;-86
2021/12/03 11:19:32;;;;;;;17.60;9.02;;;;;;;3.46;69.85;98408.25;4833081;29;20068;-86
2021/12/03 11:28:03;;;;;;;17.45;10.10;;;;;;;3.31;70.03;98408.97;4825754;29;20060;-87
2021/12/03 11:36:42;;;;;;;18.30;10.38;;;;;;;3.24;69.79;98420.09;4826005;29;20161;-90
2021/12/03 11:44:43;;;;;;;19.58;10.75;;;;;;;3.19;70.65;98435.56;4824650;29;20158;-87
2021/12/03 12:42:03;;;;;;;16.65;9.82;;;;;;;3.16;70.86;98407.16;4828732;29;20054;-85
2021/12/03 12:59:25;;;;;;;17.83;9.80;;;;;;;3.39;69.83;98401.31;4807356;29;20089;-89
2021/12/03 13:08:01;;;;;;;19.08;10.98;;;;;;;3.23;70.73;98380.53;4825430;29;20069;-88
2021/12/03 13:43:41;;;;;;;21.15;10.98;;;;;;;3.46;70.25;98313.63;4777248;30;20543;-88
2021/12/03 14:39:58;;;;;;;24.85;13.80;;;;;;;3.30;70.58;98331.56;4826945;29;20499;-88
2021/12/03 14:46:10;;;;;;;24.25;13.82;;;;;;;3.05;71.09;98290.94;4829120;29;20062;-91
2021/12/03 15:00:31;;;;;;;26.17;15.50;;;;;;;2.66;73.70;98322.38;4819790;29;20295;-88
2021/12/03 15:08:24;;;;;;;28.30;15.43;;;;;;;2.54;74.85;98299.91;4827511;29;20066;-89
2021/12/03 15:21:41;;;;;;;26.95;15.70;;;;;;;2.65;75.73;98280.25;4809174;29;20516;-88
2021/12/03 15:32:27;;;;;;;29.33;15.95;;;;;;;2.61;75.53;98275.06;4826718;29;20046;-93
2021/12/03 16:10:38;;;;;;;33.58;18.83;;;;;;;2.28;78.30;98249.78;4843981;29;20050;-87
2021/12/03 16:13:27;;;;;;;33.85;19.02;;;;;;;2.34;78.18;98239.56;4834685;29;20094;-89
2021/12/03 16:21:39;;;;;;;29.77;16.50;;;;;;;2.56;77.89;98212.25;4829265;29;20093;-90
2021/12/03 16:53:38;;;;;;;34.75;18.88;;;;;;;2.84;77.01;98159.22;4819439;29;20058;-84
2021/12/03 16:56:24;;;;;;;40.38;23.60;;;;;;;2.90;77.49;98182.44;4842906;29;20069;-83
2021/12/03 16:58:54;;;;;;;50.35;28.45;;;;;;;2.74;77.07;98162.59;4844613;29;20046;-83
2021/12/03 17:12:13;;;;;;;106.85;58.63;;;;;;;2.76;77.54;98133.38;4823998;29;20093;-87
2021/12/03 17:48:10;;;;;;;23.20;13.70;;;;;;;3.19;76.71;98099.22;4807368;29;20058;-90
2021/12/03 17:56:24;;;;;;;20.60;11.95;;;;;;;3.00;76.72;98087.94;4805778;29;20051;-86
2021/12/03 17:58:57;;;;;;;20.73;11.95;;;;;;;3.25;76.45;98127.66;4804440;29;20124;-87
2021/12/03 18:01:37;;;;;;;21.13;11.73;;;;;;;2.97;75.87;98087.91;4805007;29;20427;-86
2021/12/03 18:04:21;;;;;;;23.13;13.27;;;;;;;3.10;76.00;98117.22;4805288;29;20116;-87
2021/12/03 18:53:46;;;;;;;;;;;;;;;2.62;76.93;98161.66;4809019;29;20051;-86
2021/12/03 18:56:17;;;;;;;21.58;11.93;;;;;;;2.66;76.77;98157.34;4791426;29;20023;-88
2021/12/03 18:58:50;;;;;;;24.98;13.88;;;;;;;2.66;77.04;98154.78;4806987;29;20122;-89
2021/12/03 19:01:19;;;;;;;23.75;14.27;;;;;;;2.42;76.98;98109.06;4809153;29;20082;-89
2021/12/03 19:06:40;;;;;;;36.83;20.65;;;;;;;2.58;77.20;98147.00;4808542;29;20552;-85
2021/12/03 19:09:17;;;;;;;25.77;14.73;;;;;;;2.55;77.03;98154.69;4807989;29;20055;-86
2021/12/03 19:14:22;;;;;;;28.52;15.55;;;;;;;2.59;77.04;98150.44;4808462;29;20082;-84
2021/12/03 19:17:01;;;;;;;22.55;13.35;;;;;;;2.62;77.56;98195.16;4806636;29;20103;-83
2021/12/03 19:19:30;;;;;;;28.42;15.18;;;;;;;2.52;77.34;98190.78;4807409;29;20082;-87
2021/12/03 19:21:59;;;;;;;28.00;15.27;;;;;;;2.52;76.98;98177.88;4807327;29;20111;-84
2021/12/03 19:24:27;;;;;;;26.20;14.23;;;;;;;2.54;77.80;98164.97;4792119;29;20054;-85
2021/12/03 19:26:54;;;;;;;27.90;15.55;;;;;;;2.41;77.41;98127.94;4809468;29;20054;-84
2021/12/03 19:29:23;;;;;;;27.90;16.38;;;;;;;2.53;77.26;98138.34;4808985;29;20086;-85
2021/12/03 19:31:52;;;;;;;24.02;14.18;;;;;;;2.55;77.27;98141.81;4808479;29;20067;-85
2021/12/03 19:34:21;;;;;;;25.60;14.30;;;;;;;2.60;77.52;98142.72;4808223;29;20046;-86
2021/12/03 19:36:50;;;;;;;26.48;14.27;;;;;;;2.54;77.08;98139.22;4807274;29;20114;-85
2021/12/03 19:39:19;;;;;;;21.52;12.88;;;;;;;2.53;77.59;98145.22;4807721;29;20521;-84
2021/12/03 19:42:23;;;;;;;22.52;12.82;;;;;;;2.57;77.25;98149.56;4807086;29;20069;-86
2021/12/03 19:47:10;;;;;;;24.52;13.25;;;;;;;2.41;77.13;98156.28;4805884;29;20153;-85
2021/12/03 19:52:10;;;;;;;22.02;11.82;;;;;;;2.36;77.51;98183.75;4807099;29;20212;-83